サンクトペテルブルク の空港の天気 - METARとTAF

プルコヴォ空港(サンクトペテルブルグ) ( ULLI / LED ) - ロシア サンクトペテルブルク
飛行場実況気象(Metar)
観測時間04/25 19:00 MSK (04/25 16:00 UTC)
風向・風速南東 7m/s
視程9000m
天気現象弱いしゅう雨
全天の4割程度の雲 雲底高度 340m
全天の8割程度の雲 雲底高度 610m
全天を覆う雲 雲底高度 1220m
気温4℃
湿度87%
気圧1004hPa
METARULLI 251600Z 13007MPS 9000 -SHRA SCT011 BKN020CB OVC040 04/02 Q1004 R88/290050 NOSIG
過去の天気等 Google飛行場航空写真 Wunderground天気予報

過去48時間のMETAR

飛行場予報(TAF)
発表時間: 4/25 16:58 MSK (4/25 13:58 UTC)
予報対象時間: 25日18時 MSK ~ 26日18時 MSK
風向・風速南南東 6m/s 瞬間風速 12m/s
視程5,000m
天気現象弱い雨
全天の8割程度の雲 雲底高度 300m
全天の8割程度の雲 雲底高度 910m
25日18時 MSK ~ 26日5時 MSK に一時的に
風向・風速南東 8m/s 瞬間風速 16m/s
視程1,500m
天気現象弱いしゅう雨雪 もや
全天の8割程度の雲 雲底高度 150m
全天の8割程度の積乱雲 雲底高度 460m
26日5時 MSK から
風向・風速西南西 6m/s 瞬間風速 12m/s
視程6,000m
全天の8割程度の雲 雲底高度 210m
全天の8割程度の雲 雲底高度 610m
26日5時 MSK ~ 26日9時 MSK に一時的に
風向・風速西南西 3m/s 瞬間風速 8m/s
視程1,200m
天気現象弱いしゅう雨雪 もや
全天の8割程度の雲 雲底高度 120m
全天の8割程度の積乱雲 雲底高度 460m
26日9時 MSK ~ 26日11時 MSK に徐々に
風向・風速西南西 7m/s 瞬間風速 12m/s
26日9時 MSK ~ 26日18時 MSK に一時的に
風向・風速南西 9m/s 瞬間風速 15m/s
TAF ULLI 251358Z 2515/2615 16006G12MPS 5000 -RA BKN010 BKN030
TEMPO 2515/2602 14008G16MPS 1500 -SHRASN BR BKN005 BKN015CB
FM260200 24006G12MPS 6000 BKN007 BKN020
TEMPO 2602/2606 25003G08MPS 1200 -SHRASN BR BKN004 BKN015CB
BECMG 2606/2608 24007G12MPS
TEMPO 2606/2615 23009G15MPS